Time;durP1;ratioP1;P1;durP2;ratioP2;P2;SDS_P1;SDS_P2;PMS_P1;PMS_P2;Temp;Humidity;BMP_temperature;BMP_pressure;BME280_temperature;BME280_humidity;BME280_pressure;Samples;Min_cycle;Max_cycle;Signal;HPM_P1;HPM_P2
2024/04/20 00:00:56;;;;;;;;;5.00;4.00;;;;;10.94;69.86;101692.00;5428130;26;43969;-73
2024/04/20 00:03:22;;;;;;;;;5.25;3.00;;;;;11.02;69.49;101708.78;5427922;26;43930;-73
2024/04/20 00:05:47;;;;;;;;;2.75;2.00;;;;;11.02;70.28;101714.13;5412651;26;43823;-73
2024/04/20 00:08:13;;;;;;;;;5.25;3.75;;;;;11.03;69.99;101707.88;5426869;26;44020;-73
2024/04/20 00:10:38;;;;;;;;;5.00;5.00;;;;;10.81;68.93;101677.13;5403003;26;44068;-73
2024/04/20 00:13:03;;;;;;;;;4.25;2.00;;;;;10.94;69.64;101714.28;5425988;26;43944;-73
2024/04/20 00:15:29;;;;;;;;;3.00;3.00;;;;;10.83;69.20;101702.91;5426051;26;43815;-73
2024/04/20 00:17:54;;;;;;;;;2.00;2.00;;;;;10.80;69.21;101704.75;5419464;26;43972;-73
2024/04/20 00:20:19;;;;;;;;;3.00;2.00;;;;;10.79;69.66;101702.97;5426038;26;43910;-73
2024/04/20 00:22:45;;;;;;;;;3.00;3.00;;;;;10.84;69.38;101727.81;5417424;26;43888;-73
2024/04/20 00:25:10;;;;;;;;;5.25;4.00;;;;;10.73;69.52;101706.66;5428132;26;43964;-73
2024/04/20 00:27:36;;;;;;;;;8.00;3.75;;;;;10.75;69.52;101721.72;5425809;26;43856;-73
2024/04/20 00:30:01;;;;;;;;;8.50;4.25;;;;;10.77;69.69;101724.38;5427299;26;44052;-73
2024/04/20 00:32:26;;;;;;;;;2.75;1.50;;;;;10.74;69.57;101719.06;5425900;26;43841;-73
2024/04/20 00:34:52;;;;;;;;;2.25;2.25;;;;;10.67;70.20;101709.41;5420376;26;43819;-73
2024/04/20 00:37:17;;;;;;;;;2.75;2.25;;;;;10.54;69.53;101690.03;5416660;26;43892;-72
2024/04/20 00:39:42;;;;;;;;;3.75;2.00;;;;;10.59;69.68;101688.19;5413015;26;54503;-73
2024/04/20 00:42:08;;;;;;;;;2.50;2.25;;;;;10.77;69.48;101726.16;5411614;26;48876;-73
2024/04/20 00:44:35;;;;;;;;;3.00;3.00;;;;;10.66;69.22;101704.97;5417818;26;43866;-73
2024/04/20 00:47:03;;;;;;;;;2.25;0.50;;;;;10.63;70.06;101707.72;5401725;26;44157;-73
2024/04/20 00:49:30;;;;;;;;;3.25;3.25;;;;;10.78;69.52;101735.94;5410212;26;44114;-73
2024/04/20 00:51:57;;;;;;;;;5.00;5.00;;;;;10.77;69.45;101728.84;5412479;26;44096;-73
2024/04/20 00:54:24;;;;;;;;;5.75;3.75;;;;;10.73;69.28;101722.69;5425435;26;44103;-73
2024/04/20 00:56:49;;;;;;;;;3.00;2.00;;;;;10.54;70.17;101693.63;5425286;26;44021;-73
2024/04/20 00:59:17;;;;;;;;;3.25;2.25;;;;;10.67;69.79;101707.63;5424957;26;45830;-73
2024/04/20 01:01:43;;;;;;;;;4.25;2.00;;;;;10.47;69.54;101680.38;5425137;26;44317;-73
2024/04/20 01:04:08;;;;;;;;;4.00;3.00;;;;;10.68;69.62;101711.19;5413114;26;44210;-73
2024/04/20 01:06:33;;;;;;;;;2.00;1.25;;;;;10.65;69.65;101714.78;5426930;26;44414;-73
2024/04/20 01:08:59;;;;;;;;;4.25;2.25;;;;;10.57;69.44;101700.69;5422680;26;44687;-73
2024/04/20 01:11:24;;;;;;;;;2.00;1.00;;;;;10.59;69.47;101706.00;5424835;26;43923;-73
2024/04/20 01:13:55;;;;;;;;;4.00;3.25;;;;;10.57;69.16;101711.34;5419545;26;43886;-73
2024/04/20 01:16:22;;;;;;;;;4.25;2.50;;;;;10.55;69.18;101711.38;5419410;26;43875;-73
2024/04/20 01:18:48;;;;;;;;;3.00;2.00;;;;;10.41;69.81;101705.41;5407030;26;45148;-73
2024/04/20 01:21:14;;;;;;;;;3.25;2.75;;;;;10.48;69.82;101711.53;5428585;26;43969;-73
2024/04/20 01:23:40;;;;;;;;;4.00;3.00;;;;;10.31;69.30;101687.75;5428611;26;44271;-73
2024/04/20 01:26:06;;;;;;;;;2.00;2.00;;;;;10.55;69.47;101729.19;5423290;26;44124;-73
2024/04/20 01:28:31;;;;;;;;;4.00;3.75;;;;;10.56;69.39;101729.19;5418130;26;43990;-73
2024/04/20 01:30:56;;;;;;;;;3.00;3.00;;;;;10.44;69.91;101718.72;5429647;26;43902;-73
2024/04/20 01:33:22;;;;;;;;;4.00;3.50;;;;;10.44;69.88;101717.81;5421117;26;43915;-73
2024/04/20 01:35:48;;;;;;;;;4.00;3.00;;;;;10.42;69.53;101715.16;5427860;26;44286;-73
2024/04/20 01:38:13;;;;;;;;;2.25;1.00;;;;;10.48;69.98;101727.53;5429997;26;43887;-73
2024/04/20 01:40:39;;;;;;;;;5.50;4.00;;;;;10.49;69.81;101731.97;5425861;26;44002;-72
2024/04/20 01:43:04;;;;;;;;;4.25;3.00;;;;;10.51;70.18;101730.16;5403974;26;44180;-73
2024/04/20 01:45:30;;;;;;;;;7.50;6.50;;;;;10.28;69.95;101701.13;5423064;26;43969;-73
2024/04/20 01:47:55;;;;;;;;;6.00;5.00;;;;;10.20;69.94;101691.44;5429351;26;44775;-73
2024/04/20 01:50:20;;;;;;;;;2.00;2.00;;;;;10.45;69.56;101739.13;5412723;26;43859;-73
2024/04/20 01:52:46;;;;;;;;;3.00;2.50;;;;;10.32;69.86;101727.78;5416702;26;58338;-73
2024/04/20 01:55:11;;;;;;;;;3.75;3.75;;;;;10.29;70.09;101724.22;5427896;26;43897;-73
2024/04/20 01:57:37;;;;;;;;;5.25;4.75;;;;;10.08;70.29;101693.44;5431040;26;46025;-73
2024/04/20 02:00:03;;;;;;;;;4.50;3.25;;;;;10.37;70.15;101747.28;5429362;26;43925;-73
2024/04/20 02:02:28;;;;;;;;;2.50;2.00;;;;;10.24;70.30;101736.78;5425629;26;44075;-72
2024/04/20 02:04:54;;;;;;;;;4.50;2.50;;;;;10.23;70.61;101730.56;5429462;26;44059;-73
2024/04/20 02:07:19;;;;;;;;;4.00;4.00;;;;;10.26;70.60;101733.19;5429361;26;43895;-73
2024/04/20 02:09:44;;;;;;;;;2.75;2.75;;;;;10.28;70.18;101743.84;5416739;26;43933;-73
2024/04/20 02:12:13;;;;;;;;;2.00;2.00;;;;;10.32;70.21;101757.16;5417682;26;43920;-73
2024/04/20 02:14:38;;;;;;;;;8.75;2.00;;;;;10.31;70.04;101744.66;5407910;26;43855;-72
2024/04/20 02:17:03;;;;;;;;;5.00;2.00;;;;;10.32;70.38;101761.59;5397383;26;46808;-73
2024/04/20 02:19:29;;;;;;;;;2.25;2.25;;;;;10.22;70.00;101762.59;5427136;26;44019;-73
2024/04/20 02:21:54;;;;;;;;;2.50;2.00;;;;;10.06;70.40;101728.16;5392886;26;44164;-73
2024/04/20 02:24:20;;;;;;;;;6.00;2.75;;;;;10.13;70.40;101751.16;5406899;26;44106;-73
2024/04/20 02:26:45;;;;;;;;;4.00;3.00;;;;;10.06;70.12;101745.94;5420952;26;46583;-73
2024/04/20 02:29:10;;;;;;;;;3.75;3.00;;;;;10.04;70.21;101748.63;5424902;26;43966;-73
2024/04/20 02:31:36;;;;;;;;;4.25;2.25;;;;;10.04;69.91;101759.31;5423216;26;44059;-73
2024/04/20 02:34:01;;;;;;;;;3.00;2.00;;;;;9.92;70.00;101738.13;5427812;26;44205;-73
2024/04/20 02:36:27;;;;;;;;;6.25;3.00;;;;;9.89;69.78;101743.47;5429213;26;45167;-73
2024/04/20 02:38:53;;;;;;;;;4.75;3.00;;;;;10.05;70.11;101769.06;5429135;26;44374;-73
2024/04/20 02:41:18;;;;;;;;;3.50;2.50;;;;;9.85;69.45;101734.66;5426834;26;44356;-73
2024/04/20 02:43:44;;;;;;;;;3.75;3.00;;;;;10.00;70.05;101763.78;5425567;26;44254;-72
2024/04/20 02:46:11;;;;;;;;;3.00;3.00;;;;;9.99;69.79;101756.69;5421344;26;44867;-73
2024/04/20 02:48:37;;;;;;;;;2.00;1.75;;;;;9.78;69.31;101720.50;5424550;26;43949;-73
2024/04/20 02:51:02;;;;;;;;;2.00;2.00;;;;;10.08;69.43;101768.13;5425175;26;44023;-73
2024/04/20 02:53:28;;;;;;;;;2.50;2.50;;;;;10.11;69.53;101771.66;5427208;26;44127;-72
2024/04/20 02:55:53;;;;;;;;;1.75;1.00;;;;;9.95;68.87;101746.06;5428631;26;44628;-72
2024/04/20 02:58:18;;;;;;;;;2.75;2.25;;;;;10.05;69.18;101770.84;5429342;26;43776;-72
2024/04/20 03:00:58;;;;;;;;;3.00;1.00;;;;;10.12;69.15;101780.53;5419229;26;44369;-73
2024/04/20 03:03:29;;;;;;;;;2.50;1.25;;;;;10.05;68.79;101770.84;5419862;26;44930;-73
2024/04/20 03:05:54;;;;;;;;;3.00;2.00;;;;;9.89;69.14;101744.38;5408781;26;46790;-73
2024/04/20 03:08:20;;;;;;;;;3.50;2.00;;;;;10.10;68.50;101780.53;5428110;26;43869;-73
2024/04/20 03:10:46;;;;;;;;;2.50;1.00;;;;;9.93;68.10;101759.44;5421472;26;44073;-73
2024/04/20 03:13:12;;;;;;;;;2.75;1.00;;;;;9.95;68.11;101776.28;5424666;26;44473;-73
2024/04/20 03:15:38;;;;;;;;;3.25;2.00;;;;;9.76;67.67;101750.78;5428651;26;44928;-73
2024/04/20 03:18:03;;;;;;;;;1.50;1.50;;;;;9.66;67.63;101742.00;5428743;26;44024;-72
2024/04/20 03:20:29;;;;;;;;;2.00;1.00;;;;;9.64;66.88;101754.50;5427596;26;43997;-73
2024/04/20 03:22:54;;;;;;;;;1.00;1.00;;;;;9.64;67.00;101762.50;5428243;26;43916;-73
2024/04/20 03:25:20;;;;;;;;;4.00;1.50;;;;;9.70;67.13;101775.72;5428815;26;45014;-73
2024/04/20 03:27:46;;;;;;;;;1.00;1.00;;;;;9.79;67.47;101801.41;5428395;26;44439;-73
2024/04/20 03:30:11;;;;;;;;;0.75;0.75;;;;;9.70;67.00;101778.38;5425035;26;43963;-73
2024/04/20 03:32:37;;;;;;;;;4.00;1.00;;;;;9.71;67.51;101780.16;5423437;26;44944;-73
2024/04/20 03:35:06;;;;;;;;;2.00;2.00;;;;;9.77;67.34;101797.88;5406679;26;45252;-73
2024/04/20 03:37:32;;;;;;;;;1.75;0.75;;;;;9.71;66.94;101781.97;5428516;26;43992;-73
2024/04/20 03:39:57;;;;;;;;;1.50;1.50;;;;;9.66;66.80;101766.00;5427460;26;44052;-73
2024/04/20 03:42:24;;;;;;;;;3.50;1.00;;;;;9.78;66.40;101796.97;5408848;26;44073;-73
2024/04/20 03:44:49;;;;;;;;;2.00;2.00;;;;;9.72;66.25;101792.59;5423840;26;45832;-73
2024/04/20 03:47:15;;;;;;;;;2.25;1.25;;;;;9.78;66.58;101807.63;5423077;26;43931;-73
2024/04/20 03:49:40;;;;;;;;;1.50;1.00;;;;;9.81;66.56;101807.59;5392173;26;44220;-72
2024/04/20 03:52:06;;;;;;;;;2.50;2.50;;;;;9.61;66.44;101779.38;5426301;26;43907;-73
2024/04/20 03:54:31;;;;;;;;;3.00;2.00;;;;;9.78;66.72;101816.50;5423721;26;43988;-73
2024/04/20 03:56:56;;;;;;;;;3.00;2.00;;;;;9.63;66.93;101796.25;5413024;26;59443;-73
2024/04/20 03:59:22;;;;;;;;;1.75;1.75;;;;;9.72;66.89;101808.59;5414369;26;43914;-73
2024/04/20 04:01:47;;;;;;;;;2.00;1.00;;;;;9.73;66.69;101821.03;5426532;26;43807;-73
2024/04/20 04:04:12;;;;;;;;;2.50;2.50;;;;;9.59;66.38;101794.53;5384958;26;47088;-73
2024/04/20 04:06:37;;;;;;;;;7.00;1.00;;;;;9.71;66.67;101812.16;5404786;26;44100;-73
2024/04/20 04:09:03;;;;;;;;;3.00;1.00;;;;;9.76;66.46;101821.00;5409196;26;44339;-73
2024/04/20 04:11:29;;;;;;;;;1.00;1.00;;;;;9.66;66.53;101814.00;5409586;26;44325;-73
2024/04/20 04:13:54;;;;;;;;;2.25;1.00;;;;;9.47;65.65;101797.31;5411432;26;44144;-73
2024/04/20 04:16:19;;;;;;;;;2.75;1.75;;;;;9.60;65.82;101822.06;5424531;26;43915;-73
2024/04/20 04:18:45;;;;;;;;;1.50;1.00;;;;;9.43;66.06;101795.59;5420183;26;43818;-73
2024/04/20 04:21:11;;;;;;;;;1.00;1.00;;;;;9.73;65.92;101852.13;5418856;26;43772;-73
2024/04/20 04:23:37;;;;;;;;;1.25;0.00;;;;;9.48;66.04;101809.75;5423013;26;46594;-73
2024/04/20 04:26:03;;;;;;;;;1.00;1.00;;;;;9.72;66.20;101839.69;5408712;26;44281;-73
2024/04/20 04:28:29;;;;;;;;;2.75;1.00;;;;;9.56;65.81;101826.53;5413993;26;44008;-73
2024/04/20 04:30:55;;;;;;;;;0.50;0.50;;;;;9.63;66.10;101846.03;5423768;26;43953;-73
2024/04/20 04:33:20;;;;;;;;;2.25;0.50;;;;;9.57;66.10;101831.00;5412188;26;45249;-73
2024/04/20 04:35:45;;;;;;;;;1.00;0.75;;;;;9.39;66.48;101810.75;5427774;26;43964;-73
2024/04/20 04:38:11;;;;;;;;;0.75;0.75;;;;;9.51;66.09;101833.72;5413715;26;44105;-73
2024/04/20 04:40:36;;;;;;;;;1.75;0.00;;;;;9.59;65.86;101845.19;5412638;26;54457;-73
2024/04/20 04:43:01;;;;;;;;;1.00;0.00;;;;;9.53;66.00;101833.69;5409762;26;43993;-73
2024/04/20 04:45:27;;;;;;;;;0.00;0.00;;;;;9.54;65.86;101835.44;5405038;26;44040;-73
2024/04/20 04:47:52;;;;;;;;;3.50;1.00;;;;;9.47;66.02;101826.63;5410546;26;44248;-73
2024/04/20 04:50:18;;;;;;;;;0.25;0.25;;;;;9.47;65.71;101837.28;5427641;26;43818;-73
2024/04/20 04:52:43;;;;;;;;;1.00;1.00;;;;;9.44;65.48;101835.56;5422303;26;45069;-72
2024/04/20 04:55:08;;;;;;;;;1.25;1.00;;;;;9.44;65.22;101838.22;5414127;26;44487;-73
2024/04/20 04:57:34;;;;;;;;;1.25;1.00;;;;;9.46;65.30;101838.22;5426823;26;44228;-72
2024/04/20 04:59:59;;;;;;;;;1.75;1.75;;;;;9.39;65.50;101828.50;5407803;26;47607;-72
2024/04/20 05:02:25;;;;;;;;;2.00;1.00;;;;;9.38;65.10;101835.59;5410301;26;60248;-72
2024/04/20 05:04:50;;;;;;;;;2.00;0.00;;;;;9.37;65.46;101832.97;5417336;26;44299;-73
2024/04/20 05:07:16;;;;;;;;;0.00;0.00;;;;;9.61;65.15;101880.69;5421847;26;43938;-72
2024/04/20 05:09:41;;;;;;;;;1.50;0.50;;;;;9.59;64.74;101874.50;5419159;26;43938;-72
2024/04/20 05:12:06;;;;;;;;;0.00;0.00;;;;;9.60;65.60;101889.56;5430147;26;44591;-73
2024/04/20 05:14:32;;;;;;;;;4.00;1.00;;;;;9.52;65.19;101888.81;5416590;26;43856;-73
2024/04/20 05:16:57;;;;;;;;;3.00;1.00;;;;;9.64;64.98;101904.66;5430550;26;44140;-73
2024/04/20 05:19:23;;;;;;;;;1.00;1.00;;;;;9.63;64.61;101920.66;5430196;26;43843;-73
2024/04/20 05:21:48;;;;;;;;;0.25;0.25;;;;;9.51;65.23;101900.34;5429707;26;45408;-72
2024/04/20 05:24:13;;;;;;;;;0.75;0.75;;;;;9.60;64.91;101902.03;5424368;26;44027;-72
2024/04/20 05:26:39;;;;;;;;;2.50;1.00;;;;;9.57;64.92;101902.97;5412059;26;51255;-73
2024/04/20 05:29:04;;;;;;;;;2.25;0.50;;;;;9.52;64.67;101893.22;5429097;26;43914;-72
2024/04/20 05:31:30;;;;;;;;;1.00;1.00;;;;;9.61;64.75;101918.00;5428011;26;45620;-72
2024/04/20 05:33:55;;;;;;;;;1.00;0.75;;;;;9.60;64.67;101926.91;5429868;26;44232;-72
2024/04/20 05:36:20;;;;;;;;;2.00;1.00;;;;;9.50;64.23;101911.03;5413641;26;43941;-72
2024/04/20 05:38:46;;;;;;;;;2.00;2.00;;;;;9.59;64.49;101934.94;5397894;26;44421;-72
2024/04/20 05:41:11;;;;;;;;;2.00;1.00;;;;;9.45;64.58;101921.72;5421756;26;46058;-72
2024/04/20 05:43:37;;;;;;;;;1.00;1.00;;;;;9.28;64.48;101904.09;5399577;26;44162;-72
2024/04/20 05:46:02;;;;;;;;;1.00;1.00;;;;;9.43;64.47;101920.84;5411733;26;44232;-72
2024/04/20 05:48:29;;;;;;;;;2.25;1.25;;;;;9.43;64.92;101923.50;5407008;26;44103;-72
2024/04/20 05:50:54;;;;;;;;;0.00;0.00;;;;;9.46;64.94;101939.47;5409365;26;45037;-72
2024/04/20 05:53:20;;;;;;;;;2.00;1.00;;;;;9.43;64.45;101939.50;5429705;26;43883;-72
2024/04/20 05:55:45;;;;;;;;;0.25;0.25;;;;;9.42;64.49;101943.97;5427495;26;44093;-72
2024/04/20 05:58:12;;;;;;;;;1.00;0.00;;;;;9.35;63.63;101947.56;5405822;26;45045;-72
2024/04/20 06:00:37;;;;;;;;;1.00;1.00;;;;;9.28;64.11;101938.72;5429186;26;43989;-72
2024/04/20 06:03:03;;;;;;;;;1.00;1.00;;;;;9.38;64.29;101971.53;5429027;26;44108;-72
2024/04/20 06:05:28;;;;;;;;;1.00;1.00;;;;;9.30;64.32;101962.69;5429742;26;44318;-72
2024/04/20 06:07:53;;;;;;;;;0.00;0.00;;;;;9.26;64.50;101961.84;5428324;26;44059;-72
2024/04/20 06:10:19;;;;;;;;;1.25;0.50;;;;;9.23;63.97;101955.66;5409299;26;45841;-72
2024/04/20 06:12:44;;;;;;;;;1.00;1.00;;;;;9.28;63.85;101969.81;5399717;26;43885;-72
2024/04/20 06:15:10;;;;;;;;;3.50;1.75;;;;;9.24;63.79;101974.28;5426329;26;44023;-72
2024/04/20 06:17:35;;;;;;;;;2.00;1.00;;;;;9.22;63.75;101977.84;5426268;26;45609;-72
2024/04/20 06:20:00;;;;;;;;;3.00;1.00;;;;;8.92;64.07;101947.88;5412056;26;44016;-72
2024/04/20 06:22:25;;;;;;;;;0.00;0.00;;;;;9.08;63.23;101975.28;5427154;26;44459;-72
2024/04/20 06:24:53;;;;;;;;;2.50;0.75;;;;;8.93;64.13;101964.75;5429805;26;43958;-72
2024/04/20 06:27:20;;;;;;;;;3.25;3.00;;;;;9.03;64.08;101966.44;5423204;26;43850;-76
2024/04/20 06:29:45;;;;;;;;;1.25;1.25;;;;;8.96;64.32;101949.63;5400021;26;43900;-67
2024/04/20 06:32:11;;;;;;;;;2.00;0.25;;;;;9.25;63.52;101991.16;5416269;26;44717;-71
2024/04/20 06:34:36;;;;;;;;;1.00;1.00;;;;;9.24;63.76;101990.28;5409442;26;44552;-71
2024/04/20 06:37:01;;;;;;;;;1.50;1.00;;;;;8.94;64.09;101934.53;5411171;26;44106;-71
2024/04/20 06:39:27;;;;;;;;;0.00;0.00;;;;;9.17;64.16;101969.91;5405171;26;43935;-70
2024/04/20 06:41:54;;;;;;;;;2.00;0.75;;;;;9.25;64.10;101981.41;5410874;26;43979;-70
2024/04/20 06:44:20;;;;;;;;;1.00;1.00;;;;;9.24;63.92;101989.41;5397771;26;44068;-70
2024/04/20 06:46:45;;;;;;;;;2.00;2.00;;;;;9.05;63.81;101948.66;5395207;26;44436;-80
2024/04/20 06:49:12;;;;;;;;;3.25;1.75;;;;;9.10;63.77;101973.50;5420594;26;44058;-74
2024/04/20 06:51:37;;;;;;;;;2.25;1.00;;;;;9.26;63.40;102016.91;5412506;26;44302;-73
2024/04/20 06:54:03;;;;;;;;;1.75;1.25;;;;;9.02;63.84;101975.31;5427244;26;43877;-74
2024/04/20 06:56:28;;;;;;;;;1.25;1.25;;;;;9.30;64.26;102028.44;5421491;26;43933;-74
2024/04/20 06:58:54;;;;;;;;;1.75;1.75;;;;;9.08;63.74;101983.28;5427445;26;45632;-74
2024/04/20 07:01:19;;;;;;;;;2.50;1.25;;;;;9.06;64.00;101985.94;5424643;26;45814;-75
2024/04/20 07:03:45;;;;;;;;;2.75;0.25;;;;;9.03;63.95;101983.31;5393874;26;43857;-77
2024/04/20 07:06:10;;;;;;;;;2.00;2.00;;;;;9.25;63.54;102028.47;5417154;26;43872;-85
2024/04/20 07:08:35;;;;;;;;;0.75;0.75;;;;;9.23;63.99;102015.16;5420765;26;45725;-75
2024/04/20 07:11:01;;;;;;;;;3.00;1.00;;;;;9.27;63.85;102024.00;5409545;26;44845;-74
2024/04/20 07:13:35;;;;;;;;;5.50;0.50;;;;;9.26;63.78;102016.91;5421960;26;43987;-74
2024/04/20 07:16:00;;;;;;;;;3.75;1.00;;;;;9.22;63.61;101991.16;5413367;26;43988;-73
2024/04/20 07:18:26;;;;;;;;;1.00;0.00;;;;;9.42;63.49;102023.00;5416887;26;44048;-74
2024/04/20 07:20:51;;;;;;;;;1.50;1.00;;;;;9.41;63.53;102022.13;5399168;26;43922;-73
2024/04/20 07:23:17;;;;;;;;;3.25;1.25;;;;;9.40;62.93;102020.34;5417208;26;44024;-74
2024/04/20 07:25:43;;;;;;;;;3.00;0.00;;;;;9.54;62.92;102052.25;5405523;26;43826;-74
2024/04/20 07:28:08;;;;;;;;;3.00;0.25;;;;;9.24;63.31;101998.28;5417886;26;43982;-74
2024/04/20 07:30:34;;;;;;;;;3.25;1.00;;;;;9.52;63.45;102040.72;5412877;26;43958;-74
2024/04/20 07:32:59;;;;;;;;;2.50;1.50;;;;;9.42;62.53;102029.25;5428455;26;47935;-74
2024/04/20 07:35:25;;;;;;;;;8.50;2.50;;;;;9.28;62.89;102018.66;5405792;26;43933;-73
2024/04/20 07:37:50;;;;;;;;;1.00;0.25;;;;;9.31;62.93;102009.78;5424560;26;44631;-74
2024/04/20 07:40:15;;;;;;;;;1.75;0.00;;;;;9.61;63.12;102066.44;5406018;26;43962;-74
2024/04/20 07:42:41;;;;;;;;;4.50;1.00;;;;;9.44;62.81;102035.44;5400147;26;43893;-74
2024/04/20 07:45:06;;;;;;;;;3.50;1.00;;;;;9.55;63.17;102039.81;5412683;26;44565;-74
2024/04/20 07:47:32;;;;;;;;;1.00;1.00;;;;;9.71;63.33;102057.47;5394147;26;45870;-73
2024/04/20 07:49:57;;;;;;;;;3.00;1.00;;;;;9.49;63.42;102010.53;5418900;26;44327;-72
2024/04/20 07:52:22;;;;;;;;;2.25;1.00;;;;;9.77;63.69;102052.09;5421422;26;43994;-72
2024/04/20 07:54:48;;;;;;;;;2.00;2.00;;;;;9.60;63.83;102017.53;5409999;26;44006;-72
2024/04/20 07:57:14;;;;;;;;;3.75;1.75;;;;;9.76;63.27;102026.31;5396336;26;44002;-72
2024/04/20 07:59:40;;;;;;;;;3.50;1.50;;;;;9.75;63.05;102029.88;5422927;26;43918;-73
2024/04/20 08:02:09;;;;;;;;;5.00;1.00;;;;;9.75;63.50;102018.31;5421542;26;43804;-77
2024/04/20 08:04:35;;;;;;;;;1.50;1.00;;;;;9.80;63.50;102021.84;5419491;26;44546;-74
2024/04/20 08:07:01;;;;;;;;;1.00;1.00;;;;;9.91;63.04;102035.97;5396649;26;44824;-77
2024/04/20 08:09:26;;;;;;;;;1.25;1.00;;;;;9.92;62.80;102034.16;5423872;26;43973;-75
2024/04/20 08:11:51;;;;;;;;;2.50;1.00;;;;;10.14;62.31;102066.88;5421204;26;43937;-76
2024/04/20 08:14:17;;;;;;;;;3.25;1.00;;;;;9.94;62.29;102032.38;5404536;26;43930;-77
2024/04/20 08:16:42;;;;;;;;;1.00;1.00;;;;;9.98;62.08;102040.34;5393715;26;51407;-74
2024/04/20 08:19:07;;;;;;;;;2.00;1.00;;;;;10.04;62.73;102060.75;5422195;26;43797;-74
2024/04/20 08:21:33;;;;;;;;;1.50;1.00;;;;;10.17;62.11;102086.44;5407675;26;43831;-74
2024/04/20 08:23:58;;;;;;;;;3.00;2.00;;;;;10.05;62.34;102078.50;5425386;26;44641;-73
2024/04/20 08:26:23;;;;;;;;;1.00;1.00;;;;;9.88;61.67;102054.66;5447294;26;43998;-73
2024/04/20 08:28:49;;;;;;;;;3.50;2.00;;;;;10.12;62.10;102100.69;5423569;26;43859;-74
2024/04/20 08:31:14;;;;;;;;;2.00;1.00;;;;;10.07;62.51;102087.38;5421458;26;45461;-71
2024/04/20 08:33:39;;;;;;;;;1.25;1.25;;;;;10.06;62.11;102088.28;5410090;26;49336;-73
2024/04/20 08:36:05;;;;;;;;;1.00;1.00;;;;;10.24;61.62;102107.69;5408505;26;44019;-76
2024/04/20 08:38:30;;;;;;;;;3.00;2.00;;;;;10.22;61.47;102104.16;5412488;26;44455;-76
2024/04/20 08:41:02;;;;;;;;;1.00;1.00;;;;;10.24;61.80;102108.59;5426072;26;44016;-78
2024/04/20 08:43:29;;;;;;;;;2.00;1.25;;;;;10.04;62.00;102070.53;5411914;26;43902;-79
2024/04/20 08:45:57;;;;;;;;;3.00;1.00;;;;;10.30;61.50;102105.84;5419148;26;45049;-75
2024/04/20 08:48:25;;;;;;;;;1.75;1.25;;;;;10.10;61.14;102065.13;5429185;26;44326;-80
2024/04/20 08:50:52;;;;;;;;;2.00;1.00;;;;;10.13;61.41;102057.09;5428088;26;44382;-74
2024/04/20 08:53:18;;;;;;;;;2.00;2.00;;;;;10.36;60.92;102091.63;5423321;26;45903;-75
2024/04/20 08:55:47;;;;;;;;;2.00;1.00;;;;;10.25;60.83;102072.13;5438648;26;44977;-74
2024/04/20 08:58:13;;;;;;;;;1.50;1.50;;;;;10.28;60.44;102066.75;5404758;26;44702;-74
2024/04/20 09:00:40;;;;;;;;;1.00;0.50;;;;;10.29;60.84;102057.81;5423668;26;44251;-75
2024/04/20 09:03:06;;;;;;;;;0.50;0.50;;;;;10.61;60.63;102104.69;5420838;26;44576;-74
2024/04/20 09:05:33;;;;;;;;;1.00;1.00;;;;;10.47;60.06;102079.03;5423473;26;44243;-74
2024/04/20 09:07:58;;;;;;;;;2.00;1.00;;;;;10.55;59.69;102086.97;5425035;26;44134;-74
2024/04/20 09:10:24;;;;;;;;;1.00;1.00;;;;;10.54;60.80;102077.16;5421990;26;44311;-74
2024/04/20 09:12:49;;;;;;;;;0.75;0.75;;;;;10.67;60.12;102094.81;5416161;26;44279;-74
2024/04/20 09:15:17;;;;;;;;;3.50;1.75;;;;;10.59;59.85;102071.78;5423240;26;44402;-74
2024/04/20 09:17:42;;;;;;;;;8.25;2.75;;;;;10.81;60.00;102104.47;5411103;26;44576;-74
2024/04/20 09:20:08;;;;;;;;;2.25;2.00;;;;;10.89;59.49;102118.63;5426455;26;45743;-74
2024/04/20 09:22:33;;;;;;;;;2.00;1.00;;;;;10.67;60.18;102081.47;5414910;26;44154;-74
2024/04/20 09:25:08;;;;;;;;;2.25;1.00;;;;;10.61;59.66;102083.31;5423025;26;43930;-74
2024/04/20 09:27:33;;;;;;;;;3.25;1.00;;;;;10.50;59.73;102076.31;5426644;26;43859;-74
2024/04/20 09:30:03;;;;;;;;;1.50;1.25;;;;;10.69;59.18;102102.81;5426260;26;43861;-74
2024/04/20 09:32:34;;;;;;;;;1.50;1.50;;;;;10.63;59.28;102098.44;5421326;26;44055;-74
2024/04/20 09:34:59;;;;;;;;;3.00;2.00;;;;;10.72;58.83;102089.44;5419600;26;46921;-74
2024/04/20 09:37:25;;;;;;;;;2.00;2.00;;;;;10.93;58.91;102120.38;5427547;26;43981;-74
2024/04/20 09:39:53;;;;;;;;;1.50;1.00;;;;;10.65;58.85;102071.72;5426724;26;44484;-74
2024/04/20 09:42:19;;;;;;;;;5.00;1.00;;;;;10.95;58.98;102115.88;5423516;26;45139;-74
2024/04/20 09:44:47;;;;;;;;;3.00;1.50;;;;;10.74;58.49;102075.19;5420474;26;45129;-75
2024/04/20 09:47:15;;;;;;;;;0.75;0.00;;;;;10.74;58.33;102068.94;5428660;26;43881;-74
2024/04/20 09:49:43;;;;;;;;;2.50;2.50;;;;;10.83;58.68;102081.31;5423648;26;44045;-75
2024/04/20 09:52:21;;;;;;;;;2.50;0.75;;;;;10.84;59.07;102077.72;5404494;26;45255;-74
2024/04/20 09:54:55;;;;;;;;;2.00;1.00;;;;;11.12;58.53;102119.22;5410532;26;43944;-75
2024/04/20 09:57:23;;;;;;;;;2.25;1.25;;;;;10.91;58.54;102069.63;5427621;26;44144;-74
2024/04/20 09:59:50;;;;;;;;;4.50;2.25;;;;;11.24;58.92;102114.63;5426358;26;44108;-74
2024/04/20 10:02:16;;;;;;;;;1.75;1.00;;;;;11.25;58.43;102111.94;5429357;26;44141;-74
2024/04/20 10:04:44;;;;;;;;;1.50;1.00;;;;;11.32;58.29;102112.75;5415754;26;43935;-74
2024/04/20 10:07:11;;;;;;;;;3.50;1.25;;;;;11.30;57.02;102111.88;5405841;26;45609;-74
2024/04/20 10:09:41;;;;;;;;;2.00;2.00;;;;;11.25;57.45;102093.22;5426955;26;43916;-74
2024/04/20 10:12:07;;;;;;;;;3.50;3.00;;;;;11.42;56.76;102122.41;5425450;26;44020;-74
2024/04/20 10:14:32;;;;;;;;;1.75;0.50;;;;;11.32;56.83;102100.25;5416564;26;44280;-74
2024/04/20 10:17:00;;;;;;;;;2.75;1.00;;;;;11.43;56.08;102115.28;5429654;26;43838;-74
2024/04/20 10:19:42;;;;;;;;;1.00;1.00;;;;;11.43;56.36;102115.28;5430022;26;43941;-74
2024/04/20 10:22:07;;;;;;;;;1.00;1.00;;;;;11.44;55.85;102115.25;5426983;26;43900;-74
2024/04/20 10:24:33;;;;;;;;;4.00;1.50;;;;;11.45;57.03;102122.34;5421621;26;44845;-74
2024/04/20 10:26:59;;;;;;;;;1.00;1.00;;;;;11.37;55.98;102107.34;5429241;26;43871;-74
2024/04/20 10:29:26;;;;;;;;;2.50;2.00;;;;;11.49;56.70;102125.88;5426925;26;44334;-74
2024/04/20 10:32:02;;;;;;;;;5.00;3.75;;;;;11.33;56.65;102101.16;5404736;26;44198;-74
2024/04/20 10:34:28;;;;;;;;;5.00;2.00;;;;;11.34;57.00;102097.56;5420510;26;44843;-74
2024/04/20 10:37:01;;;;;;;;;5.75;1.75;;;;;11.39;57.21;102110.88;5427473;26;53429;-74
2024/04/20 10:39:27;;;;;;;;;4.50;2.00;;;;;11.45;57.45;102118.81;5429213;26;43808;-74
2024/04/20 10:42:04;;;;;;;;;3.25;2.75;;;;;11.37;57.29;102097.53;5428975;26;44028;-74
2024/04/20 10:44:29;;;;;;;;;2.00;1.00;;;;;11.28;57.40;102069.13;5431300;26;46039;-76
2024/04/20 10:46:55;;;;;;;;;3.75;3.00;;;;;11.61;57.18;102122.13;5430862;25;44021;-76
2024/04/20 10:49:21;;;;;;;;;2.00;1.50;;;;;11.46;56.87;102084.03;5442053;26;44379;-77
2024/04/20 10:51:54;;;;;;;;;4.50;2.75;;;;;11.68;57.00;102118.47;5428982;26;44030;-76
2024/04/20 10:54:20;;;;;;;;;6.00;3.00;;;;;11.69;56.06;102120.22;5395801;26;44535;-76
2024/04/20 10:56:46;;;;;;;;;3.50;2.00;;;;;11.76;56.50;102139.75;5405789;26;44056;-76
2024/04/20 10:59:12;;;;;;;;;3.75;3.00;;;;;11.48;56.21;102092.91;5411216;26;44027;-75
2024/04/20 11:01:42;;;;;;;;;6.25;3.50;;;;;11.53;56.28;102110.66;5401941;26;43788;-76
2024/04/20 11:04:07;;;;;;;;;5.75;3.00;;;;;11.50;57.14;102109.81;5392824;26;44061;-75
2024/04/20 11:06:33;;;;;;;;;3.00;3.00;;;;;11.65;57.54;102123.88;5392327;26;44169;-76
2024/04/20 11:09:01;;;;;;;;;3.00;3.00;;;;;11.54;56.47;102107.09;5403166;26;44383;-80
2024/04/20 11:11:26;;;;;;;;;4.50;3.00;;;;;11.49;56.39;102088.44;5416395;26;43938;-75
2024/04/20 11:13:59;;;;;;;;;5.25;2.75;;;;;11.43;57.42;102078.72;5422125;26;43981;-75
2024/04/20 11:16:26;;;;;;;;;5.75;2.75;;;;;11.51;56.98;102105.38;5423800;26;44558;-75
2024/04/20 11:18:52;;;;;;;;;5.75;4.00;;;;;11.42;56.22;102084.09;5424611;26;43835;-78
2024/04/20 11:21:17;;;;;;;;;3.50;3.00;;;;;11.42;56.72;102081.41;5405227;26;44723;-75
2024/04/20 11:23:42;;;;;;;;;2.25;2.25;;;;;11.57;56.80;102099.91;5419534;26;43876;-75